createdAt,value
2023-03-26T00:02:13.367Z,76.00
2023-03-26T00:04:42.615Z,76.90
2023-03-26T00:07:10.717Z,76.40
2023-03-26T00:09:38.049Z,76.40
2023-03-26T00:12:04.842Z,76.30
2023-03-26T00:14:32.752Z,78.10
2023-03-26T00:16:59.578Z,79.40
2023-03-26T00:19:27.909Z,80.30
2023-03-26T00:22:14.206Z,80.10
2023-03-26T00:24:40.985Z,81.50
2023-03-26T00:27:08.844Z,82.60
2023-03-26T00:29:35.743Z,83.80
2023-03-26T00:32:02.490Z,85.20
2023-03-26T00:34:29.200Z,85.80
2023-03-26T00:36:56.036Z,86.70
2023-03-26T00:39:24.103Z,86.30
2023-03-26T00:41:54.699Z,86.60
2023-03-26T00:44:21.995Z,87.30
2023-03-26T00:46:48.693Z,87.30
2023-03-26T00:49:15.401Z,87.40
2023-03-26T00:51:42.274Z,88.00
2023-03-26T00:54:08.988Z,88.20
2023-03-26T00:56:35.937Z,88.40
2023-03-26T00:59:02.844Z,88.90
2023-03-26T01:01:30.742Z,88.90
2023-03-26T01:04:08.928Z,88.50
2023-03-26T01:06:38.719Z,88.60
2023-03-26T01:09:12.746Z,89.60
2023-03-26T01:11:39.667Z,89.80
2023-03-26T01:14:08.652Z,89.20
2023-03-26T01:16:38.250Z,89.50
2023-03-26T01:19:13.038Z,90.10
2023-03-26T01:21:39.835Z,90.30
2023-03-26T01:24:07.606Z,90.00
2023-03-26T01:26:50.093Z,90.00
2023-03-26T01:29:34.162Z,90.10
2023-03-26T01:32:00.947Z,90.20
2023-03-26T01:34:53.930Z,90.30
2023-03-26T01:37:34.594Z,90.50
2023-03-26T01:40:06.937Z,90.10
2023-03-26T01:42:39.997Z,90.00
2023-03-26T01:45:06.792Z,90.20
2023-03-26T01:50:19.161Z,90.50
2023-03-26T01:52:45.940Z,90.60
2023-03-26T01:55:14.386Z,90.70
2023-03-26T01:57:44.216Z,91.20
2023-03-26T02:00:18.232Z,90.90
2023-03-26T02:02:45.096Z,90.80
2023-03-26T02:05:15.312Z,90.80
2023-03-26T02:07:44.790Z,91.50
2023-03-26T02:10:17.145Z,91.50
2023-03-26T02:12:44.517Z,91.50
2023-03-26T02:15:12.202Z,91.60
2023-03-26T02:20:42.189Z,91.20
2023-03-26T02:23:09.055Z,91.50
2023-03-26T02:25:39.801Z,91.80
2023-03-26T02:28:25.138Z,92.00
2023-03-26T02:30:52.513Z,92.30
2023-03-26T02:33:19.296Z,92.10
2023-03-26T02:35:46.152Z,91.90
2023-03-26T02:38:14.575Z,92.10
2023-03-26T02:40:41.813Z,92.10
2023-03-26T02:43:08.773Z,92.20
2023-03-26T02:45:35.518Z,92.60
2023-03-26T02:48:02.428Z,92.70
2023-03-26T02:50:32.632Z,92.60
2023-03-26T02:52:59.377Z,92.60
2023-03-26T02:55:26.246Z,92.80
2023-03-26T02:57:53.066Z,92.90
2023-03-26T03:00:22.634Z,92.90
2023-03-26T03:02:49.785Z,92.80
2023-03-26T03:05:18.746Z,93.20
2023-03-26T03:13:16.668Z,93.10
2023-03-26T03:15:44.286Z,93.10
2023-03-26T03:18:11.159Z,93.00
2023-03-26T03:20:38.044Z,93.20
2023-03-26T03:23:04.834Z,93.20
2023-03-26T03:25:32.564Z,93.10
2023-03-26T03:27:59.350Z,92.90
2023-03-26T03:30:26.187Z,93.10
2023-03-26T03:32:52.977Z,93.30
2023-03-26T03:35:19.740Z,93.20
2023-03-26T03:38:05.448Z,93.40
2023-03-26T03:40:32.196Z,93.00
2023-03-26T03:42:58.980Z,93.10
2023-03-26T03:45:44.282Z,93.00
2023-03-26T03:50:56.314Z,93.80
2023-03-26T03:53:26.144Z,93.60
2023-03-26T03:55:56.864Z,93.70
2023-03-26T03:58:25.299Z,93.60
2023-03-26T04:00:52.612Z,93.40
2023-03-26T04:03:20.258Z,93.40
2023-03-26T04:06:01.585Z,93.40
2023-03-26T04:08:28.406Z,93.20
2023-03-26T04:10:55.235Z,93.30
2023-03-26T04:13:22.057Z,93.20
2023-03-26T04:15:48.899Z,93.20
2023-03-26T04:18:15.715Z,93.40
2023-03-26T04:20:46.831Z,93.40
2023-03-26T04:23:14.376Z,93.60
2023-03-26T04:26:04.025Z,93.90
2023-03-26T04:28:33.946Z,94.00
2023-03-26T04:31:01.333Z,93.60
2023-03-26T04:33:29.201Z,94.00
2023-03-26T04:36:01.655Z,93.20
2023-03-26T04:38:40.859Z,93.30
2023-03-26T04:41:07.840Z,93.60
2023-03-26T04:43:35.684Z,93.40
2023-03-26T04:46:05.612Z,93.30
2023-03-26T04:48:32.800Z,93.40
2023-03-26T04:50:59.611Z,93.30
2023-03-26T04:53:26.379Z,92.90
2023-03-26T04:55:59.924Z,92.80
2023-03-26T04:58:32.759Z,92.60
2023-03-26T05:01:09.900Z,92.60
2023-03-26T05:03:39.260Z,92.80
2023-03-26T05:06:30.005Z,91.80
2023-03-26T05:08:56.692Z,92.00
2023-03-26T05:11:23.426Z,91.60
2023-03-26T05:13:50.176Z,91.60
2023-03-26T05:16:17.017Z,91.50
2023-03-26T05:18:43.777Z,91.50
2023-03-26T05:21:11.311Z,91.00
2023-03-26T05:23:38.048Z,91.20
2023-03-26T05:26:04.891Z,91.20
2023-03-26T05:28:31.734Z,91.00
2023-03-26T05:30:58.660Z,91.00
2023-03-26T05:33:25.895Z,90.80
2023-03-26T05:36:00.261Z,90.90
2023-03-26T05:38:29.004Z,90.90
2023-03-26T05:41:02.964Z,91.10
2023-03-26T05:43:29.719Z,90.70
2023-03-26T05:45:56.610Z,90.90
2023-03-26T05:48:23.689Z,90.80
2023-03-26T05:50:50.977Z,90.60
2023-03-26T05:53:18.444Z,90.80
2023-03-26T05:55:45.980Z,91.10
2023-03-26T05:58:13.135Z,91.00
2023-03-26T06:00:39.854Z,90.60
2023-03-26T06:06:10.003Z,90.50
2023-03-26T06:08:36.794Z,90.50
2023-03-26T06:13:57.308Z,90.90
2023-03-26T06:16:28.366Z,90.90
2023-03-26T06:18:56.860Z,90.70
2023-03-26T06:21:42.917Z,91.00
2023-03-26T06:24:09.675Z,90.60
2023-03-26T06:26:54.753Z,91.10
2023-03-26T06:29:21.585Z,90.90
2023-03-26T06:31:48.644Z,91.00
2023-03-26T06:34:34.310Z,91.20
2023-03-26T06:37:01.077Z,91.40
2023-03-26T06:39:27.870Z,91.30
2023-03-26T06:44:39.148Z,91.70
2023-03-26T06:47:06.004Z,91.90
2023-03-26T06:49:34.407Z,91.50
2023-03-26T06:54:46.953Z,91.50
2023-03-26T06:57:13.814Z,91.80
2023-03-26T06:59:40.593Z,91.70
2023-03-26T07:02:07.705Z,91.60
2023-03-26T07:04:34.602Z,91.90
2023-03-26T07:07:01.421Z,92.10
2023-03-26T07:09:30.452Z,92.30
2023-03-26T07:14:41.277Z,92.10
2023-03-26T07:17:08.189Z,92.40
2023-03-26T07:19:54.266Z,92.60
2023-03-26T07:22:22.557Z,92.90
2023-03-26T07:24:49.814Z,92.90
2023-03-26T07:27:16.599Z,93.10
2023-03-26T07:29:56.831Z,93.10
2023-03-26T07:32:47.864Z,93.30
2023-03-26T07:35:23.989Z,93.20
2023-03-26T07:38:09.255Z,93.10
2023-03-26T07:40:42.060Z,93.00
2023-03-26T07:43:11.741Z,92.90
2023-03-26T07:48:40.819Z,93.20
2023-03-26T07:51:08.025Z,93.30
2023-03-26T07:53:34.947Z,93.50
2023-03-26T07:56:10.855Z,93.90
2023-03-26T07:58:46.695Z,93.70
2023-03-26T08:01:32.089Z,93.60
2023-03-26T08:04:24.575Z,93.60
2023-03-26T08:06:53.236Z,93.40
2023-03-26T08:09:27.663Z,93.20
2023-03-26T08:11:58.403Z,93.50
2023-03-26T08:14:51.315Z,93.80
2023-03-26T08:17:31.105Z,93.70
2023-03-26T08:20:17.094Z,93.90
2023-03-26T08:22:50.917Z,93.60
2023-03-26T08:25:24.387Z,93.70
2023-03-26T08:27:57.248Z,93.60
2023-03-26T08:30:24.790Z,93.60
2023-03-26T08:35:44.053Z,94.00
2023-03-26T08:38:12.276Z,93.70
2023-03-26T08:40:49.462Z,93.80
2023-03-26T08:43:27.835Z,93.90
2023-03-26T08:46:11.114Z,94.10
2023-03-26T08:48:56.658Z,93.90
2023-03-26T08:52:00.868Z,93.70
2023-03-26T08:54:39.819Z,93.60
2023-03-26T08:57:23.672Z,93.90
2023-03-26T09:00:11.332Z,93.70
2023-03-26T09:02:44.219Z,93.50
2023-03-26T09:05:11.107Z,93.80
2023-03-26T09:08:07.328Z,93.40
2023-03-26T09:10:43.224Z,93.50
2023-03-26T09:13:18.413Z,93.70
2023-03-26T09:21:37.671Z,93.70
2023-03-26T09:24:06.944Z,93.40
2023-03-26T09:26:58.162Z,93.50
2023-03-26T09:29:46.948Z,93.90
2023-03-26T09:32:32.112Z,93.70
2023-03-26T09:34:58.872Z,93.80
2023-03-26T09:37:57.081Z,93.40
2023-03-26T09:40:31.900Z,93.50
2023-03-26T09:42:59.485Z,93.70
2023-03-26T09:45:45.081Z,93.50
2023-03-26T09:48:45.756Z,93.50
2023-03-26T09:51:19.058Z,93.50
2023-03-26T09:53:45.875Z,93.60
2023-03-26T09:56:31.569Z,93.40
2023-03-26T09:59:17.198Z,93.40
2023-03-26T10:02:04.369Z,93.60
2023-03-26T10:04:38.629Z,93.70
2023-03-26T10:07:17.841Z,93.40
2023-03-26T10:10:03.386Z,93.50
2023-03-26T10:12:36.696Z,93.60
2023-03-26T10:15:03.399Z,93.40
2023-03-26T10:17:42.717Z,93.50
2023-03-26T10:20:13.103Z,93.50
2023-03-26T10:22:56.745Z,93.40
2023-03-26T10:25:26.327Z,93.60
2023-03-26T10:30:56.733Z,93.50
2023-03-26T10:33:42.553Z,93.20
2023-03-26T10:36:29.958Z,93.60
2023-03-26T10:38:59.566Z,93.00
2023-03-26T10:41:31.097Z,93.50
2023-03-26T10:44:08.778Z,93.60
2023-03-26T10:46:36.115Z,93.00
2023-03-26T10:49:12.004Z,93.30
2023-03-26T10:51:57.491Z,93.00
2023-03-26T10:54:35.735Z,93.70
2023-03-26T10:57:06.454Z,92.90
2023-03-26T10:59:33.271Z,92.90
2023-03-26T11:02:18.790Z,93.10
2023-03-26T11:05:15.748Z,93.90
2023-03-26T11:08:01.126Z,93.40
2023-03-26T11:10:54.183Z,92.70
2023-03-26T11:13:26.900Z,92.50
2023-03-26T11:15:58.133Z,92.40
2023-03-26T11:18:43.457Z,92.40
2023-03-26T11:21:18.891Z,92.50
2023-03-26T11:26:40.652Z,92.70
2023-03-26T11:29:31.361Z,92.20
2023-03-26T11:32:15.627Z,92.00
2023-03-26T11:35:02.628Z,92.00
2023-03-26T11:37:29.500Z,91.90
2023-03-26T11:39:58.757Z,92.20
2023-03-26T11:42:25.803Z,91.70
2023-03-26T11:44:56.547Z,91.60
2023-03-26T11:47:26.776Z,92.60
2023-03-26T11:49:55.247Z,91.50
2023-03-26T11:52:41.090Z,91.70
2023-03-26T11:55:11.302Z,91.80
2023-03-26T11:57:58.485Z,91.60
2023-03-26T12:00:27.615Z,91.90
2023-03-26T12:02:58.615Z,91.70
2023-03-26T12:05:26.757Z,91.70
2023-03-26T12:07:54.808Z,91.50
2023-03-26T12:10:23.379Z,91.40
2023-03-26T12:12:52.022Z,91.60
2023-03-26T12:15:20.048Z,91.50
2023-03-26T12:17:48.008Z,91.60
2023-03-26T12:20:33.409Z,92.00
2023-03-26T12:23:01.726Z,92.40
2023-03-26T12:25:30.336Z,93.20
2023-03-26T12:28:03.099Z,92.40
2023-03-26T12:30:31.277Z,91.30
2023-03-26T12:33:16.890Z,91.20
2023-03-26T12:35:44.174Z,92.30
2023-03-26T12:38:13.969Z,93.00
2023-03-26T12:40:42.744Z,92.80
2023-03-26T12:44:53.797Z,92.60
2023-03-26T12:47:56.896Z,91.00
2023-03-26T12:49:19.133Z,92.20
2023-03-26T12:51:46.016Z,91.50
2023-03-26T12:54:33.195Z,92.40
2023-03-26T13:00:12.326Z,90.90
2023-03-26T13:02:59.137Z,90.30
2023-03-26T13:05:41.784Z,91.20
2023-03-26T13:08:14.604Z,90.20
2023-03-26T13:11:00.141Z,91.20
2023-03-26T13:13:47.867Z,90.90
2023-03-26T13:16:33.427Z,92.20
2023-03-26T13:19:05.653Z,93.40
2023-03-26T13:21:54.031Z,92.60
2023-03-26T13:24:41.794Z,93.00
2023-03-26T13:27:26.982Z,92.40
2023-03-26T13:29:59.669Z,93.90
2023-03-26T13:32:32.891Z,92.60
2023-03-26T13:35:08.964Z,93.50
2023-03-26T13:37:59.045Z,93.30
2023-03-26T13:40:25.922Z,93.00
2023-03-26T13:43:06.066Z,94.10
2023-03-26T13:45:51.592Z,94.00
2023-03-26T13:48:21.435Z,93.80
2023-03-26T13:50:57.267Z,93.40
2023-03-26T13:53:31.716Z,93.50
2023-03-26T13:55:59.941Z,93.40
2023-03-26T13:58:38.635Z,94.20
2023-03-26T14:01:08.268Z,94.00
2023-03-26T14:03:43.273Z,93.80
2023-03-26T14:06:18.602Z,93.20
2023-03-26T14:08:47.593Z,93.80
2023-03-26T14:11:17.653Z,93.60
2023-03-26T14:13:47.398Z,93.70
2023-03-26T14:16:17.216Z,94.00
2023-03-26T14:19:04.832Z,93.90
2023-03-26T14:24:51.579Z,94.50
2023-03-26T14:27:34.186Z,93.30
2023-03-26T14:30:04.171Z,94.00
2023-03-26T14:32:42.858Z,94.40
2023-03-26T14:35:20.455Z,94.40
2023-03-26T14:37:53.118Z,94.20
2023-03-26T14:40:19.924Z,94.10
2023-03-26T14:43:01.933Z,94.10
2023-03-26T14:45:40.833Z,94.50
2023-03-26T14:48:31.625Z,94.80
2023-03-26T14:51:17.180Z,95.20
2023-03-26T14:54:02.676Z,95.80
2023-03-26T14:56:41.274Z,96.00
2023-03-26T14:59:11.259Z,96.40
2023-03-26T15:01:57.016Z,96.60
2023-03-26T15:04:39.006Z,96.80
2023-03-26T15:07:05.866Z,97.10
2023-03-26T15:09:51.098Z,97.10
2023-03-26T15:12:20.933Z,97.10
2023-03-26T15:14:59.809Z,97.20
2023-03-26T15:17:45.792Z,97.30
2023-03-26T15:23:22.239Z,97.70
2023-03-26T15:25:58.080Z,97.90
2023-03-26T15:28:24.926Z,97.70
2023-03-26T15:31:23.944Z,97.50
2023-03-26T15:34:09.555Z,97.40
2023-03-26T15:36:54.332Z,97.30
2023-03-26T15:39:21.060Z,97.30
2023-03-26T15:41:55.549Z,97.20
2023-03-26T15:44:43.746Z,97.10
2023-03-26T15:47:31.561Z,97.20
2023-03-26T15:55:53.849Z,97.20
2023-03-26T15:58:36.820Z,97.10
2023-03-26T16:01:19.957Z,97.10
2023-03-26T16:03:49.730Z,96.90
2023-03-26T16:06:28.089Z,96.90
2023-03-26T16:09:04.780Z,97.20
2023-03-26T16:11:50.397Z,97.00
2023-03-26T16:14:17.418Z,96.80
2023-03-26T16:17:09.033Z,96.90
2023-03-26T16:19:49.078Z,97.10
2023-03-26T16:22:42.803Z,97.00
2023-03-26T16:25:30.585Z,96.90
2023-03-26T16:28:34.966Z,96.90
2023-03-26T16:31:23.653Z,97.10
2023-03-26T16:34:09.278Z,96.60
2023-03-26T16:36:36.569Z,96.60
2023-03-26T16:39:06.180Z,96.70
2023-03-26T16:41:34.076Z,96.50
2023-03-26T16:44:13.860Z,96.90
2023-03-26T16:46:56.630Z,96.10
2023-03-26T16:49:36.002Z,96.20
2023-03-26T16:52:40.578Z,96.60
2023-03-26T16:55:13.650Z,97.00
2023-03-26T16:57:59.145Z,97.00
2023-03-26T17:00:34.704Z,97.00
2023-03-26T17:03:13.303Z,97.20
2023-03-26T17:05:49.231Z,97.30
2023-03-26T17:08:16.472Z,97.50
2023-03-26T17:11:01.979Z,97.80
2023-03-26T17:13:47.143Z,97.80
2023-03-26T17:16:23.005Z,97.50
2023-03-26T17:18:49.895Z,97.20
2023-03-26T17:21:46.023Z,96.80
2023-03-26T17:24:26.738Z,96.60
2023-03-26T17:29:58.267Z,96.70
2023-03-26T17:32:45.494Z,96.40
2023-03-26T17:35:13.945Z,96.50
2023-03-26T17:37:47.797Z,96.90
2023-03-26T17:40:29.135Z,96.70
2023-03-26T17:43:14.606Z,96.70
2023-03-26T17:45:43.800Z,96.50
2023-03-26T17:48:10.701Z,96.70
2023-03-26T17:53:24.808Z,96.70
2023-03-26T17:55:52.140Z,96.60
2023-03-26T17:58:24.325Z,96.70
2023-03-26T18:00:52.934Z,96.40
2023-03-26T18:03:21.176Z,96.50
2023-03-26T18:05:49.262Z,96.20
2023-03-26T18:08:18.914Z,96.30
2023-03-26T18:10:51.813Z,96.50
2023-03-26T18:13:37.369Z,96.50
2023-03-26T18:16:13.474Z,96.70
2023-03-26T18:18:59.232Z,96.60
2023-03-26T18:21:39.698Z,96.50
2023-03-26T18:24:25.203Z,96.60
2023-03-26T18:26:56.767Z,96.50
2023-03-26T18:29:25.188Z,96.40
2023-03-26T18:31:57.742Z,96.40
2023-03-26T18:34:44.033Z,96.50
2023-03-26T18:37:11.257Z,96.60
2023-03-26T18:39:56.651Z,96.40
2023-03-26T18:42:25.082Z,96.30
2023-03-26T18:44:53.130Z,96.70
2023-03-26T18:47:20.551Z,96.70
2023-03-26T18:49:49.183Z,96.80
2023-03-26T18:52:34.475Z,96.60
2023-03-26T18:55:02.524Z,96.50
2023-03-26T18:57:29.503Z,96.70
2023-03-26T19:00:08.844Z,96.70
2023-03-26T19:02:54.011Z,96.60
2023-03-26T19:05:21.131Z,96.60
2023-03-26T19:07:48.027Z,96.50
2023-03-26T19:10:16.331Z,96.50
2023-03-26T19:12:43.232Z,96.60
2023-03-26T19:15:12.220Z,96.40
2023-03-26T19:17:41.385Z,96.60
2023-03-26T19:20:13.155Z,96.40
2023-03-26T19:22:42.327Z,96.50
2023-03-26T19:25:17.250Z,96.30
2023-03-26T19:27:44.094Z,96.50
2023-03-26T19:30:17.291Z,96.40
2023-03-26T19:33:12.899Z,96.50
2023-03-26T19:35:58.849Z,96.60
2023-03-26T19:38:29.467Z,96.40
2023-03-26T19:40:57.520Z,96.40
2023-03-26T19:43:25.864Z,96.30
2023-03-26T19:46:00.165Z,96.30
2023-03-26T19:51:18.753Z,96.40
2023-03-26T19:51:41.483Z,96.50
2023-03-26T19:54:16.122Z,96.30
2023-03-26T19:56:43.620Z,96.40
2023-03-26T19:59:10.429Z,96.10
2023-03-26T20:01:37.637Z,96.10
2023-03-26T20:04:06.345Z,96.10
2023-03-26T20:09:25.962Z,96.20
2023-03-26T20:11:54.269Z,96.30
2023-03-26T20:14:25.881Z,96.30
2023-03-26T20:16:52.962Z,96.20
2023-03-26T20:19:20.595Z,96.20
2023-03-26T20:21:47.469Z,96.10
2023-03-26T20:24:15.782Z,96.00
2023-03-26T20:29:28.682Z,95.80
2023-03-26T20:34:58.447Z,95.90
2023-03-26T20:37:44.349Z,95.70
2023-03-26T20:40:14.290Z,95.70
2023-03-26T20:42:42.612Z,95.70
2023-03-26T20:45:14.716Z,95.50
2023-03-26T20:47:42.360Z,95.50
2023-03-26T20:50:10.337Z,95.60
2023-03-26T20:52:37.486Z,95.60
2023-03-26T20:55:04.854Z,95.70
2023-03-26T20:57:33.615Z,95.30
2023-03-26T21:00:00.668Z,95.10
2023-03-26T21:02:27.464Z,95.30
2023-03-26T21:04:54.242Z,95.20
2023-03-26T21:07:21.162Z,95.90
2023-03-26T21:09:48.717Z,95.40
2023-03-26T21:12:25.218Z,95.70
2023-03-26T21:17:37.203Z,95.60
2023-03-26T21:20:14.833Z,94.80
2023-03-26T21:22:43.463Z,94.70
2023-03-26T21:25:19.730Z,95.50
2023-03-26T21:27:46.678Z,95.30
2023-03-26T21:30:16.428Z,95.50
2023-03-26T21:32:44.929Z,95.80
2023-03-26T21:35:13.784Z,95.40
2023-03-26T21:37:43.043Z,95.70
2023-03-26T21:40:16.972Z,96.00
2023-03-26T21:42:44.887Z,96.40
2023-03-26T21:45:12.219Z,95.80
2023-03-26T21:47:39.282Z,95.50
2023-03-26T21:50:06.527Z,95.50
2023-03-26T21:52:33.417Z,95.20
2023-03-26T21:55:01.037Z,94.90
2023-03-26T21:57:30.967Z,95.10
2023-03-26T22:00:23.870Z,95.00
2023-03-26T22:03:01.467Z,95.00
2023-03-26T22:05:47.197Z,94.80
2023-03-26T22:08:32.712Z,95.20
2023-03-26T22:13:43.673Z,94.60
2023-03-26T22:18:55.078Z,94.80
2023-03-26T22:21:23.639Z,94.70
2023-03-26T22:23:52.858Z,94.60
2023-03-26T22:26:21.131Z,94.70
2023-03-26T22:28:48.347Z,94.80
2023-03-26T22:33:59.386Z,94.70
2023-03-26T22:36:27.381Z,94.80
2023-03-26T22:38:54.794Z,94.70
2023-03-26T22:41:22.265Z,94.80
2023-03-26T22:43:52.088Z,94.70
2023-03-26T22:46:19.693Z,94.60
2023-03-26T22:48:48.324Z,94.50
2023-03-26T22:51:15.272Z,94.40
2023-03-26T22:53:42.002Z,94.50
2023-03-26T22:56:27.691Z,94.20
2023-03-26T22:58:54.416Z,94.20
2023-03-26T23:01:22.991Z,94.30
2023-03-26T23:03:50.177Z,94.00
2023-03-26T23:06:17.198Z,93.90
2023-03-26T23:08:43.982Z,94.30
2023-03-26T23:11:17.987Z,94.40
2023-03-26T23:13:45.410Z,95.00
2023-03-26T23:18:56.257Z,95.30
2023-03-26T23:21:23.035Z,95.40
2023-03-26T23:23:51.639Z,95.40
2023-03-26T23:26:18.450Z,95.50
2023-03-26T23:28:45.318Z,95.80
2023-03-26T23:31:12.778Z,95.50
2023-03-26T23:33:46.551Z,95.70
2023-03-26T23:39:02.519Z,95.30
2023-03-26T23:41:29.303Z,95.30
2023-03-26T23:43:56.217Z,94.90
2023-03-26T23:46:24.527Z,94.70
2023-03-26T23:48:52.504Z,94.40
2023-03-26T23:51:22.533Z,94.40
2023-03-26T23:53:49.663Z,94.20
2023-03-26T23:56:16.858Z,94.60
2023-03-26T23:58:43.873Z,94.60
